sensor_id;sensor_type;location;lat;lon;timestamp;P1;durP1;ratioP1;P2;durP2;ratioP2
24159;SDS011;62385;41.594;23.808;2023-09-08T00:01:26;4.45;;;2.97;;
24159;SDS011;62385;41.594;23.808;2023-09-08T00:03:51;5.00;;;3.22;;
24159;SDS011;62385;41.594;23.808;2023-09-08T00:06:17;6.38;;;3.97;;
24159;SDS011;62385;41.594;23.808;2023-09-08T00:08:43;6.10;;;3.78;;
24159;SDS011;62385;41.594;23.808;2023-09-08T00:11:08;6.07;;;3.80;;
24159;SDS011;62385;41.594;23.808;2023-09-08T00:13:34;8.45;;;4.22;;
24159;SDS011;62385;41.594;23.808;2023-09-08T00:16:00;7.63;;;3.53;;
24159;SDS011;62385;41.594;23.808;2023-09-08T00:18:27;3.78;;;3.10;;
24159;SDS011;62385;41.594;23.808;2023-09-08T00:20:53;5.50;;;3.80;;
24159;SDS011;62385;41.594;23.808;2023-09-08T00:23:19;4.45;;;3.10;;
24159;SDS011;62385;41.594;23.808;2023-09-08T00:25:44;5.97;;;3.60;;
24159;SDS011;62385;41.594;23.808;2023-09-08T00:28:10;4.50;;;2.55;;
24159;SDS011;62385;41.594;23.808;2023-09-08T00:30:35;4.35;;;2.75;;
24159;SDS011;62385;41.594;23.808;2023-09-08T00:33:01;3.70;;;2.67;;
24159;SDS011;62385;41.594;23.808;2023-09-08T00:35:27;4.13;;;2.70;;
24159;SDS011;62385;41.594;23.808;2023-09-08T00:37:53;4.32;;;2.83;;
24159;SDS011;62385;41.594;23.808;2023-09-08T00:40:18;4.70;;;2.72;;
24159;SDS011;62385;41.594;23.808;2023-09-08T00:42:44;10.07;;;3.53;;
24159;SDS011;62385;41.594;23.808;2023-09-08T00:45:09;5.13;;;4.10;;
24159;SDS011;62385;41.594;23.808;2023-09-08T00:47:35;6.43;;;4.35;;
24159;SDS011;62385;41.594;23.808;2023-09-08T00:50:02;9.05;;;4.15;;
24159;SDS011;62385;41.594;23.808;2023-09-08T00:52:29;6.68;;;5.13;;
24159;SDS011;62385;41.594;23.808;2023-09-08T00:54:59;4.72;;;3.67;;
24159;SDS011;62385;41.594;23.808;2023-09-08T00:57:24;4.90;;;3.95;;
24159;SDS011;62385;41.594;23.808;2023-09-08T00:59:50;4.63;;;3.25;;
24159;SDS011;62385;41.594;23.808;2023-09-08T01:02:16;5.20;;;3.97;;
24159;SDS011;62385;41.594;23.808;2023-09-08T01:04:43;4.78;;;3.10;;
24159;SDS011;62385;41.594;23.808;2023-09-08T01:07:09;5.10;;;2.78;;
24159;SDS011;62385;41.594;23.808;2023-09-08T01:09:36;3.22;;;2.20;;
24159;SDS011;62385;41.594;23.808;2023-09-08T01:12:05;4.57;;;2.60;;
24159;SDS011;62385;41.594;23.808;2023-09-08T01:14:52;4.55;;;3.17;;
24159;SDS011;62385;41.594;23.808;2023-09-08T01:17:17;4.40;;;3.30;;
24159;SDS011;62385;41.594;23.808;2023-09-08T01:19:43;7.47;;;3.38;;
24159;SDS011;62385;41.594;23.808;2023-09-08T01:27:33;3.55;;;2.72;;
24159;SDS011;62385;41.594;23.808;2023-09-08T01:30:02;4.68;;;2.80;;
24159;SDS011;62385;41.594;23.808;2023-09-08T01:32:30;3.45;;;2.78;;
24159;SDS011;62385;41.594;23.808;2023-09-08T01:34:57;5.53;;;3.70;;
24159;SDS011;62385;41.594;23.808;2023-09-08T01:37:25;6.00;;;3.20;;
24159;SDS011;62385;41.594;23.808;2023-09-08T01:39:51;5.05;;;2.72;;
24159;SDS011;62385;41.594;23.808;2023-09-08T01:42:16;3.63;;;2.80;;
24159;SDS011;62385;41.594;23.808;2023-09-08T01:44:42;4.32;;;3.03;;
24159;SDS011;62385;41.594;23.808;2023-09-08T01:47:09;3.67;;;2.53;;
24159;SDS011;62385;41.594;23.808;2023-09-08T01:49:35;3.58;;;2.55;;
24159;SDS011;62385;41.594;23.808;2023-09-08T01:52:00;4.53;;;2.78;;
24159;SDS011;62385;41.594;23.808;2023-09-08T01:54:27;5.93;;;2.95;;
24159;SDS011;62385;41.594;23.808;2023-09-08T01:56:53;5.55;;;3.17;;
24159;SDS011;62385;41.594;23.808;2023-09-08T01:59:19;8.32;;;3.92;;
24159;SDS011;62385;41.594;23.808;2023-09-08T02:01:45;4.45;;;2.53;;
24159;SDS011;62385;41.594;23.808;2023-09-08T02:04:10;5.82;;;3.00;;
24159;SDS011;62385;41.594;23.808;2023-09-08T02:06:37;4.38;;;3.22;;
24159;SDS011;62385;41.594;23.808;2023-09-08T02:09:03;5.45;;;3.05;;
24159;SDS011;62385;41.594;23.808;2023-09-08T02:11:28;4.43;;;3.03;;
24159;SDS011;62385;41.594;23.808;2023-09-08T02:13:54;7.07;;;3.47;;
24159;SDS011;62385;41.594;23.808;2023-09-08T02:16:19;7.28;;;4.30;;
24159;SDS011;62385;41.594;23.808;2023-09-08T02:18:50;5.75;;;3.08;;
24159;SDS011;62385;41.594;23.808;2023-09-08T02:21:15;3.63;;;2.85;;
24159;SDS011;62385;41.594;23.808;2023-09-08T02:23:41;4.25;;;2.75;;
24159;SDS011;62385;41.594;23.808;2023-09-08T02:26:09;3.78;;;2.42;;
24159;SDS011;62385;41.594;23.808;2023-09-08T02:28:34;3.25;;;2.22;;
24159;SDS011;62385;41.594;23.808;2023-09-08T02:31:00;3.60;;;2.30;;
24159;SDS011;62385;41.594;23.808;2023-09-08T02:33:26;5.25;;;2.13;;
24159;SDS011;62385;41.594;23.808;2023-09-08T02:36:10;10.50;;;2.30;;
24159;SDS011;62385;41.594;23.808;2023-09-08T02:38:38;1.90;;;1.73;;
24159;SDS011;62385;41.594;23.808;2023-09-08T02:41:04;3.58;;;2.33;;
24159;SDS011;62385;41.594;23.808;2023-09-08T02:43:30;4.40;;;2.80;;
24159;SDS011;62385;41.594;23.808;2023-09-08T02:45:55;3.20;;;2.20;;
24159;SDS011;62385;41.594;23.808;2023-09-08T02:48:21;3.15;;;2.40;;
24159;SDS011;62385;41.594;23.808;2023-09-08T02:50:47;3.25;;;1.95;;
24159;SDS011;62385;41.594;23.808;2023-09-08T02:53:13;2.75;;;2.47;;
24159;SDS011;62385;41.594;23.808;2023-09-08T02:55:39;3.17;;;2.65;;
24159;SDS011;62385;41.594;23.808;2023-09-08T02:58:04;3.90;;;2.50;;
24159;SDS011;62385;41.594;23.808;2023-09-08T03:00:30;2.35;;;1.77;;
24159;SDS011;62385;41.594;23.808;2023-09-08T03:02:55;4.13;;;2.25;;
24159;SDS011;62385;41.594;23.808;2023-09-08T03:05:21;2.92;;;1.75;;
24159;SDS011;62385;41.594;23.808;2023-09-08T03:07:49;3.13;;;2.30;;
24159;SDS011;62385;41.594;23.808;2023-09-08T03:10:15;3.92;;;2.35;;
24159;SDS011;62385;41.594;23.808;2023-09-08T03:12:42;2.63;;;1.77;;
24159;SDS011;62385;41.594;23.808;2023-09-08T03:15:08;1.92;;;1.58;;
24159;SDS011;62385;41.594;23.808;2023-09-08T03:17:34;1.90;;;1.67;;
24159;SDS011;62385;41.594;23.808;2023-09-08T03:20:01;2.42;;;2.00;;
24159;SDS011;62385;41.594;23.808;2023-09-08T03:22:27;3.25;;;1.88;;
24159;SDS011;62385;41.594;23.808;2023-09-08T03:24:52;2.33;;;1.77;;
24159;SDS011;62385;41.594;23.808;2023-09-08T03:27:18;2.22;;;1.83;;
24159;SDS011;62385;41.594;23.808;2023-09-08T03:29:44;7.60;;;2.00;;
24159;SDS011;62385;41.594;23.808;2023-09-08T03:32:10;2.35;;;1.73;;
24159;SDS011;62385;41.594;23.808;2023-09-08T03:34:36;2.40;;;1.85;;
24159;SDS011;62385;41.594;23.808;2023-09-08T03:37:05;3.47;;;2.00;;
24159;SDS011;62385;41.594;23.808;2023-09-08T03:39:31;2.22;;;1.70;;
24159;SDS011;62385;41.594;23.808;2023-09-08T03:41:57;2.67;;;1.60;;
24159;SDS011;62385;41.594;23.808;2023-09-08T03:44:22;2.38;;;1.75;;
24159;SDS011;62385;41.594;23.808;2023-09-08T03:46:48;3.72;;;1.73;;
24159;SDS011;62385;41.594;23.808;2023-09-08T03:49:13;3.15;;;1.48;;
24159;SDS011;62385;41.594;23.808;2023-09-08T03:51:39;1.90;;;1.17;;
24159;SDS011;62385;41.594;23.808;2023-09-08T03:54:04;3.33;;;1.70;;
24159;SDS011;62385;41.594;23.808;2023-09-08T03:56:33;3.20;;;1.63;;
24159;SDS011;62385;41.594;23.808;2023-09-08T03:58:58;3.40;;;1.95;;
24159;SDS011;62385;41.594;23.808;2023-09-08T04:01:24;2.78;;;1.40;;
24159;SDS011;62385;41.594;23.808;2023-09-08T04:03:50;2.03;;;1.13;;
24159;SDS011;62385;41.594;23.808;2023-09-08T04:06:15;3.30;;;1.77;;
24159;SDS011;62385;41.594;23.808;2023-09-08T04:08:41;2.58;;;1.40;;
24159;SDS011;62385;41.594;23.808;2023-09-08T04:11:06;5.85;;;2.65;;
24159;SDS011;62385;41.594;23.808;2023-09-08T04:13:32;1.77;;;1.30;;
24159;SDS011;62385;41.594;23.808;2023-09-08T04:15:58;2.33;;;1.23;;
24159;SDS011;62385;41.594;23.808;2023-09-08T04:18:26;1.73;;;1.42;;
24159;SDS011;62385;41.594;23.808;2023-09-08T04:20:53;1.40;;;0.98;;
24159;SDS011;62385;41.594;23.808;2023-09-08T04:23:19;2.90;;;1.83;;
24159;SDS011;62385;41.594;23.808;2023-09-08T04:25:45;2.85;;;2.17;;
24159;SDS011;62385;41.594;23.808;2023-09-08T04:28:11;6.38;;;1.65;;
24159;SDS011;62385;41.594;23.808;2023-09-08T04:30:36;1.63;;;1.10;;
24159;SDS011;62385;41.594;23.808;2023-09-08T04:33:02;1.52;;;1.13;;
24159;SDS011;62385;41.594;23.808;2023-09-08T04:35:28;1.90;;;1.15;;
24159;SDS011;62385;41.594;23.808;2023-09-08T04:37:53;1.65;;;1.25;;
24159;SDS011;62385;41.594;23.808;2023-09-08T04:40:19;3.40;;;1.52;;
24159;SDS011;62385;41.594;23.808;2023-09-08T04:42:44;3.08;;;1.63;;
24159;SDS011;62385;41.594;23.808;2023-09-08T04:45:11;4.28;;;1.60;;
24159;SDS011;62385;41.594;23.808;2023-09-08T04:47:36;1.88;;;1.40;;
24159;SDS011;62385;41.594;23.808;2023-09-08T04:50:03;1.63;;;1.27;;
24159;SDS011;62385;41.594;23.808;2023-09-08T04:52:29;3.60;;;1.88;;
24159;SDS011;62385;41.594;23.808;2023-09-08T04:54:55;1.67;;;1.33;;
24159;SDS011;62385;41.594;23.808;2023-09-08T04:57:20;1.85;;;1.05;;
24159;SDS011;62385;41.594;23.808;2023-09-08T04:59:47;2.08;;;1.35;;
24159;SDS011;62385;41.594;23.808;2023-09-08T05:02:12;1.33;;;1.10;;
24159;SDS011;62385;41.594;23.808;2023-09-08T05:04:38;3.67;;;1.00;;
24159;SDS011;62385;41.594;23.808;2023-09-08T05:07:04;3.00;;;1.52;;
24159;SDS011;62385;41.594;23.808;2023-09-08T05:09:29;2.35;;;1.40;;
24159;SDS011;62385;41.594;23.808;2023-09-08T05:11:55;2.28;;;1.58;;
24159;SDS011;62385;41.594;23.808;2023-09-08T05:14:21;3.30;;;1.55;;
24159;SDS011;62385;41.594;23.808;2023-09-08T05:16:51;10.82;;;1.60;;
24159;SDS011;62385;41.594;23.808;2023-09-08T05:19:22;2.45;;;1.45;;
24159;SDS011;62385;41.594;23.808;2023-09-08T05:21:50;2.78;;;1.40;;
24159;SDS011;62385;41.594;23.808;2023-09-08T05:24:17;1.00;;;0.93;;
24159;SDS011;62385;41.594;23.808;2023-09-08T05:26:43;1.48;;;0.95;;
24159;SDS011;62385;41.594;23.808;2023-09-08T05:29:08;2.33;;;1.58;;
24159;SDS011;62385;41.594;23.808;2023-09-08T05:31:34;1.90;;;1.25;;
24159;SDS011;62385;41.594;23.808;2023-09-08T05:33:59;1.77;;;1.20;;
24159;SDS011;62385;41.594;23.808;2023-09-08T05:36:26;1.65;;;0.95;;
24159;SDS011;62385;41.594;23.808;2023-09-08T05:38:52;1.15;;;0.93;;
24159;SDS011;62385;41.594;23.808;2023-09-08T05:41:18;2.08;;;1.10;;
24159;SDS011;62385;41.594;23.808;2023-09-08T05:43:44;1.90;;;1.23;;
24159;SDS011;62385;41.594;23.808;2023-09-08T05:46:10;21.90;;;2.17;;
24159;SDS011;62385;41.594;23.808;2023-09-08T05:48:37;1.50;;;1.35;;
24159;SDS011;62385;41.594;23.808;2023-09-08T05:51:02;5.40;;;1.73;;
24159;SDS011;62385;41.594;23.808;2023-09-08T05:53:29;2.50;;;1.35;;
24159;SDS011;62385;41.594;23.808;2023-09-08T05:55:54;2.33;;;1.38;;
24159;SDS011;62385;41.594;23.808;2023-09-08T05:58:21;2.28;;;1.45;;
24159;SDS011;62385;41.594;23.808;2023-09-08T06:00:49;1.85;;;1.23;;
24159;SDS011;62385;41.594;23.808;2023-09-08T06:03:15;2.75;;;1.45;;
24159;SDS011;62385;41.594;23.808;2023-09-08T06:05:40;5.03;;;1.23;;
24159;SDS011;62385;41.594;23.808;2023-09-08T06:08:07;2.08;;;1.27;;
24159;SDS011;62385;41.594;23.808;2023-09-08T06:10:35;1.52;;;0.95;;
24159;SDS011;62385;41.594;23.808;2023-09-08T06:13:01;1.60;;;1.30;;
24159;SDS011;62385;41.594;23.808;2023-09-08T06:15:26;2.05;;;1.75;;
24159;SDS011;62385;41.594;23.808;2023-09-08T06:17:52;1.55;;;1.23;;
24159;SDS011;62385;41.594;23.808;2023-09-08T06:20:17;2.67;;;1.25;;
24159;SDS011;62385;41.594;23.808;2023-09-08T06:22:43;7.35;;;1.45;;
24159;SDS011;62385;41.594;23.808;2023-09-08T06:25:09;10.50;;;0.95;;
24159;SDS011;62385;41.594;23.808;2023-09-08T06:27:35;1.92;;;1.23;;
24159;SDS011;62385;41.594;23.808;2023-09-08T06:30:01;9.23;;;1.23;;
24159;SDS011;62385;41.594;23.808;2023-09-08T06:32:29;1.88;;;1.00;;
24159;SDS011;62385;41.594;23.808;2023-09-08T06:34:54;1.58;;;1.08;;
24159;SDS011;62385;41.594;23.808;2023-09-08T06:37:20;2.20;;;1.20;;
24159;SDS011;62385;41.594;23.808;2023-09-08T06:39:46;1.17;;;0.93;;
24159;SDS011;62385;41.594;23.808;2023-09-08T06:42:11;1.90;;;1.63;;
24159;SDS011;62385;41.594;23.808;2023-09-08T06:44:45;0.82;;;0.77;;
24159;SDS011;62385;41.594;23.808;2023-09-08T06:47:11;2.53;;;1.50;;
24159;SDS011;62385;41.594;23.808;2023-09-08T06:49:36;9.13;;;1.30;;
24159;SDS011;62385;41.594;23.808;2023-09-08T06:52:02;5.35;;;1.27;;
24159;SDS011;62385;41.594;23.808;2023-09-08T06:54:28;3.42;;;1.10;;
24159;SDS011;62385;41.594;23.808;2023-09-08T06:56:53;1.20;;;1.05;;
24159;SDS011;62385;41.594;23.808;2023-09-08T06:59:19;1.85;;;1.10;;
24159;SDS011;62385;41.594;23.808;2023-09-08T07:01:45;2.00;;;1.23;;
24159;SDS011;62385;41.594;23.808;2023-09-08T07:04:12;4.88;;;1.42;;
24159;SDS011;62385;41.594;23.808;2023-09-08T07:06:38;9.63;;;1.40;;
24159;SDS011;62385;41.594;23.808;2023-09-08T07:09:07;5.82;;;1.67;;
24159;SDS011;62385;41.594;23.808;2023-09-08T07:11:33;1.73;;;1.30;;
24159;SDS011;62385;41.594;23.808;2023-09-08T07:13:59;2.30;;;1.73;;
24159;SDS011;62385;41.594;23.808;2023-09-08T07:16:25;1.55;;;1.30;;
24159;SDS011;62385;41.594;23.808;2023-09-08T07:18:50;1.92;;;0.90;;
24159;SDS011;62385;41.594;23.808;2023-09-08T07:21:17;2.38;;;1.33;;
24159;SDS011;62385;41.594;23.808;2023-09-08T07:23:43;1.33;;;1.23;;
24159;SDS011;62385;41.594;23.808;2023-09-08T07:26:11;1.73;;;1.30;;
24159;SDS011;62385;41.594;23.808;2023-09-08T07:28:38;2.78;;;1.27;;
24159;SDS011;62385;41.594;23.808;2023-09-08T07:31:09;1.33;;;1.10;;
24159;SDS011;62385;41.594;23.808;2023-09-08T07:33:38;1.50;;;0.93;;
24159;SDS011;62385;41.594;23.808;2023-09-08T07:36:07;1.08;;;0.98;;
24159;SDS011;62385;41.594;23.808;2023-09-08T07:38:34;1.20;;;1.10;;
24159;SDS011;62385;41.594;23.808;2023-09-08T07:41:03;4.50;;;1.25;;
24159;SDS011;62385;41.594;23.808;2023-09-08T07:43:29;2.00;;;1.20;;
24159;SDS011;62385;41.594;23.808;2023-09-08T07:45:56;2.35;;;1.27;;
24159;SDS011;62385;41.594;23.808;2023-09-08T07:48:21;1.13;;;1.00;;
24159;SDS011;62385;41.594;23.808;2023-09-08T07:50:47;2.20;;;1.25;;
24159;SDS011;62385;41.594;23.808;2023-09-08T07:53:12;1.83;;;1.40;;
24159;SDS011;62385;41.594;23.808;2023-09-08T07:55:38;1.95;;;1.67;;
24159;SDS011;62385;41.594;23.808;2023-09-08T07:58:03;2.10;;;0.95;;
24159;SDS011;62385;41.594;23.808;2023-09-08T08:00:29;2.45;;;0.85;;
24159;SDS011;62385;41.594;23.808;2023-09-08T08:02:55;2.58;;;1.70;;
24159;SDS011;62385;41.594;23.808;2023-09-08T08:05:22;2.80;;;0.77;;
24159;SDS011;62385;41.594;23.808;2023-09-08T08:07:49;1.10;;;0.93;;
24159;SDS011;62385;41.594;23.808;2023-09-08T08:10:14;1.45;;;1.30;;
24159;SDS011;62385;41.594;23.808;2023-09-08T08:12:40;2.60;;;1.33;;
24159;SDS011;62385;41.594;23.808;2023-09-08T08:15:07;3.95;;;1.38;;
24159;SDS011;62385;41.594;23.808;2023-09-08T08:17:35;1.50;;;1.40;;
24159;SDS011;62385;41.594;23.808;2023-09-08T08:20:03;2.33;;;1.10;;
24159;SDS011;62385;41.594;23.808;2023-09-08T08:22:34;2.42;;;1.30;;
24159;SDS011;62385;41.594;23.808;2023-09-08T08:25:00;7.30;;;1.17;;
24159;SDS011;62385;41.594;23.808;2023-09-08T08:27:26;10.77;;;1.40;;
24159;SDS011;62385;41.594;23.808;2023-09-08T08:29:51;1.88;;;1.08;;
24159;SDS011;62385;41.594;23.808;2023-09-08T08:32:17;1.65;;;1.05;;
24159;SDS011;62385;41.594;23.808;2023-09-08T08:34:43;2.22;;;1.20;;
24159;SDS011;62385;41.594;23.808;2023-09-08T08:37:10;2.97;;;1.10;;
24159;SDS011;62385;41.594;23.808;2023-09-08T08:39:36;1.85;;;1.25;;
24159;SDS011;62385;41.594;23.808;2023-09-08T08:42:08;1.05;;;0.93;;
24159;SDS011;62385;41.594;23.808;2023-09-08T08:44:35;3.35;;;1.10;;
24159;SDS011;62385;41.594;23.808;2023-09-08T08:47:02;1.17;;;0.80;;
24159;SDS011;62385;41.594;23.808;2023-09-08T08:49:30;2.00;;;0.77;;
24159;SDS011;62385;41.594;23.808;2023-09-08T08:51:57;2.67;;;1.45;;
24159;SDS011;62385;41.594;23.808;2023-09-08T08:54:23;1.50;;;1.10;;
24159;SDS011;62385;41.594;23.808;2023-09-08T08:56:50;1.33;;;1.10;;
24159;SDS011;62385;41.594;23.808;2023-09-08T08:59:16;1.13;;;0.80;;
24159;SDS011;62385;41.594;23.808;2023-09-08T09:01:42;0.60;;;0.55;;
24159;SDS011;62385;41.594;23.808;2023-09-08T09:04:08;1.10;;;0.95;;
24159;SDS011;62385;41.594;23.808;2023-09-08T09:06:34;1.70;;;1.23;;
24159;SDS011;62385;41.594;23.808;2023-09-08T09:09:01;2.55;;;1.02;;
24159;SDS011;62385;41.594;23.808;2023-09-08T09:11:29;1.30;;;0.82;;
24159;SDS011;62385;41.594;23.808;2023-09-08T09:13:57;1.63;;;1.15;;
24159;SDS011;62385;41.594;23.808;2023-09-08T09:16:24;2.05;;;1.20;;
24159;SDS011;62385;41.594;23.808;2023-09-08T09:18:55;1.50;;;1.13;;
24159;SDS011;62385;41.594;23.808;2023-09-08T09:21:23;1.58;;;0.82;;
24159;SDS011;62385;41.594;23.808;2023-09-08T09:23:49;1.95;;;0.90;;
24159;SDS011;62385;41.594;23.808;2023-09-08T09:26:23;1.10;;;0.85;;
24159;SDS011;62385;41.594;23.808;2023-09-08T09:28:51;2.30;;;1.00;;
24159;SDS011;62385;41.594;23.808;2023-09-08T09:31:19;1.60;;;1.00;;
24159;SDS011;62385;41.594;23.808;2023-09-08T09:33:54;1.38;;;0.90;;
24159;SDS011;62385;41.594;23.808;2023-09-08T09:36:28;1.17;;;1.08;;
24159;SDS011;62385;41.594;23.808;2023-09-08T09:38:57;1.67;;;1.05;;
24159;SDS011;62385;41.594;23.808;2023-09-08T09:41:23;1.23;;;0.82;;
24159;SDS011;62385;41.594;23.808;2023-09-08T09:43:49;1.85;;;1.15;;
24159;SDS011;62385;41.594;23.808;2023-09-08T09:46:14;1.25;;;0.90;;
24159;SDS011;62385;41.594;23.808;2023-09-08T09:48:40;1.02;;;0.75;;
24159;SDS011;62385;41.594;23.808;2023-09-08T09:51:19;1.15;;;1.05;;
24159;SDS011;62385;41.594;23.808;2023-09-08T09:53:45;1.48;;;0.88;;
24159;SDS011;62385;41.594;23.808;2023-09-08T09:56:11;1.90;;;0.90;;
24159;SDS011;62385;41.594;23.808;2023-09-08T09:58:38;4.85;;;1.00;;
24159;SDS011;62385;41.594;23.808;2023-09-08T10:01:05;1.63;;;0.88;;
24159;SDS011;62385;41.594;23.808;2023-09-08T10:03:32;2.20;;;1.10;;
24159;SDS011;62385;41.594;23.808;2023-09-08T10:05:59;1.67;;;1.08;;
24159;SDS011;62385;41.594;23.808;2023-09-08T10:08:26;1.35;;;0.80;;
24159;SDS011;62385;41.594;23.808;2023-09-08T10:10:53;6.93;;;0.98;;
24159;SDS011;62385;41.594;23.808;2023-09-08T10:13:23;2.50;;;1.15;;
24159;SDS011;62385;41.594;23.808;2023-09-08T10:15:57;1.30;;;0.95;;
24159;SDS011;62385;41.594;23.808;2023-09-08T10:18:24;1.65;;;0.60;;
24159;SDS011;62385;41.594;23.808;2023-09-08T10:20:51;1.02;;;0.65;;
24159;SDS011;62385;41.594;23.808;2023-09-08T10:23:40;1.15;;;0.88;;
24159;SDS011;62385;41.594;23.808;2023-09-08T10:26:10;1.70;;;0.85;;
24159;SDS011;62385;41.594;23.808;2023-09-08T10:28:37;1.58;;;1.00;;
24159;SDS011;62385;41.594;23.808;2023-09-08T10:31:03;0.90;;;0.75;;
24159;SDS011;62385;41.594;23.808;2023-09-08T10:33:30;2.17;;;1.10;;
24159;SDS011;62385;41.594;23.808;2023-09-08T10:35:57;1.38;;;0.90;;
24159;SDS011;62385;41.594;23.808;2023-09-08T10:40:54;1.33;;;1.17;;
24159;SDS011;62385;41.594;23.808;2023-09-08T10:43:57;1.00;;;0.90;;
24159;SDS011;62385;41.594;23.808;2023-09-08T10:46:33;1.13;;;0.80;;
24159;SDS011;62385;41.594;23.808;2023-09-08T10:49:06;3.47;;;1.17;;
24159;SDS011;62385;41.594;23.808;2023-09-08T10:51:32;1.50;;;1.00;;
24159;SDS011;62385;41.594;23.808;2023-09-08T10:53:59;0.98;;;0.88;;
24159;SDS011;62385;41.594;23.808;2023-09-08T10:59:34;4.43;;;1.10;;
24159;SDS011;62385;41.594;23.808;2023-09-08T11:02:03;1.52;;;0.95;;
24159;SDS011;62385;41.594;23.808;2023-09-08T11:04:29;1.83;;;0.80;;
24159;SDS011;62385;41.594;23.808;2023-09-08T11:06:58;3.00;;;0.90;;
24159;SDS011;62385;41.594;23.808;2023-09-08T11:09:24;0.75;;;0.68;;
24159;SDS011;62385;41.594;23.808;2023-09-08T11:11:49;1.20;;;0.75;;
24159;SDS011;62385;41.594;23.808;2023-09-08T11:14:15;1.30;;;0.80;;
24159;SDS011;62385;41.594;23.808;2023-09-08T11:16:41;0.68;;;0.57;;
24159;SDS011;62385;41.594;23.808;2023-09-08T11:19:09;3.95;;;0.98;;
24159;SDS011;62385;41.594;23.808;2023-09-08T11:21:35;1.25;;;0.90;;
24159;SDS011;62385;41.594;23.808;2023-09-08T11:24:02;1.42;;;0.90;;
24159;SDS011;62385;41.594;23.808;2023-09-08T11:26:32;1.90;;;1.10;;
24159;SDS011;62385;41.594;23.808;2023-09-08T11:29:00;1.88;;;1.00;;
24159;SDS011;62385;41.594;23.808;2023-09-08T11:31:26;1.48;;;1.10;;
24159;SDS011;62385;41.594;23.808;2023-09-08T11:33:54;1.88;;;1.10;;
24159;SDS011;62385;41.594;23.808;2023-09-08T11:36:20;1.60;;;0.90;;
24159;SDS011;62385;41.594;23.808;2023-09-08T11:38:46;2.45;;;1.10;;
24159;SDS011;62385;41.594;23.808;2023-09-08T11:41:12;2.08;;;1.20;;
24159;SDS011;62385;41.594;23.808;2023-09-08T11:43:37;5.50;;;1.40;;
24159;SDS011;62385;41.594;23.808;2023-09-08T11:46:03;1.70;;;1.05;;
24159;SDS011;62385;41.594;23.808;2023-09-08T11:48:30;0.80;;;0.73;;
24159;SDS011;62385;41.594;23.808;2023-09-08T11:50:56;1.08;;;0.98;;
24159;SDS011;62385;41.594;23.808;2023-09-08T11:53:22;3.17;;;1.38;;
24159;SDS011;62385;41.594;23.808;2023-09-08T11:55:48;0.90;;;0.73;;
24159;SDS011;62385;41.594;23.808;2023-09-08T11:58:14;1.30;;;0.98;;
24159;SDS011;62385;41.594;23.808;2023-09-08T12:00:41;1.02;;;0.80;;
24159;SDS011;62385;41.594;23.808;2023-09-08T12:03:12;2.00;;;1.10;;
24159;SDS011;62385;41.594;23.808;2023-09-08T12:05:41;1.85;;;0.93;;
24159;SDS011;62385;41.594;23.808;2023-09-08T12:08:09;1.23;;;0.95;;
24159;SDS011;62385;41.594;23.808;2023-09-08T12:10:38;1.02;;;0.93;;
24159;SDS011;62385;41.594;23.808;2023-09-08T12:13:04;1.77;;;1.25;;
24159;SDS011;62385;41.594;23.808;2023-09-08T12:15:34;2.28;;;1.10;;
24159;SDS011;62385;41.594;23.808;2023-09-08T12:18:04;2.33;;;1.45;;
24159;SDS011;62385;41.594;23.808;2023-09-08T12:20:35;2.65;;;1.25;;
24159;SDS011;62385;41.594;23.808;2023-09-08T12:23:03;1.73;;;1.10;;
24159;SDS011;62385;41.594;23.808;2023-09-08T12:25:31;2.45;;;1.40;;
24159;SDS011;62385;41.594;23.808;2023-09-08T12:27:57;1.05;;;0.93;;
24159;SDS011;62385;41.594;23.808;2023-09-08T12:30:23;1.52;;;0.95;;
24159;SDS011;62385;41.594;23.808;2023-09-08T12:32:57;1.33;;;1.00;;
24159;SDS011;62385;41.594;23.808;2023-09-08T12:35:24;1.35;;;1.02;;
24159;SDS011;62385;41.594;23.808;2023-09-08T12:37:58;4.25;;;1.20;;
24159;SDS011;62385;41.594;23.808;2023-09-08T12:40:26;1.40;;;0.90;;
24159;SDS011;62385;41.594;23.808;2023-09-08T12:42:53;1.73;;;0.93;;
24159;SDS011;62385;41.594;23.808;2023-09-08T12:45:22;3.38;;;1.65;;
24159;SDS011;62385;41.594;23.808;2023-09-08T12:47:48;1.20;;;0.88;;
24159;SDS011;62385;41.594;23.808;2023-09-08T12:50:14;1.20;;;1.00;;
24159;SDS011;62385;41.594;23.808;2023-09-08T12:52:39;1.60;;;1.33;;
24159;SDS011;62385;41.594;23.808;2023-09-08T12:55:05;1.55;;;1.15;;
24159;SDS011;62385;41.594;23.808;2023-09-08T12:57:32;1.25;;;0.93;;
24159;SDS011;62385;41.594;23.808;2023-09-08T12:59:57;1.73;;;1.00;;
24159;SDS011;62385;41.594;23.808;2023-09-08T13:02:23;1.40;;;1.20;;
24159;SDS011;62385;41.594;23.808;2023-09-08T13:04:48;1.40;;;1.00;;
24159;SDS011;62385;41.594;23.808;2023-09-08T13:07:14;1.48;;;0.77;;
24159;SDS011;62385;41.594;23.808;2023-09-08T13:09:41;1.38;;;1.00;;
24159;SDS011;62385;41.594;23.808;2023-09-08T13:12:06;1.20;;;0.85;;
24159;SDS011;62385;41.594;23.808;2023-09-08T13:14:34;2.00;;;1.08;;
24159;SDS011;62385;41.594;23.808;2023-09-08T13:17:00;1.73;;;1.05;;
24159;SDS011;62385;41.594;23.808;2023-09-08T13:19:26;2.00;;;1.20;;
24159;SDS011;62385;41.594;23.808;2023-09-08T13:21:52;1.70;;;1.00;;
24159;SDS011;62385;41.594;23.808;2023-09-08T13:24:17;2.40;;;1.25;;
24159;SDS011;62385;41.594;23.808;2023-09-08T13:26:44;1.65;;;1.20;;
24159;SDS011;62385;41.594;23.808;2023-09-08T13:29:09;1.98;;;1.25;;
24159;SDS011;62385;41.594;23.808;2023-09-08T13:31:35;1.48;;;1.00;;
24159;SDS011;62385;41.594;23.808;2023-09-08T13:34:00;1.60;;;1.17;;
24159;SDS011;62385;41.594;23.808;2023-09-08T13:36:26;1.63;;;1.05;;
24159;SDS011;62385;41.594;23.808;2023-09-08T13:38:51;0.93;;;0.82;;
24159;SDS011;62385;41.594;23.808;2023-09-08T13:41:17;1.55;;;1.33;;
24159;SDS011;62385;41.594;23.808;2023-09-08T13:43:43;2.00;;;1.00;;
24159;SDS011;62385;41.594;23.808;2023-09-08T13:46:08;1.58;;;1.00;;
24159;SDS011;62385;41.594;23.808;2023-09-08T13:48:34;1.33;;;0.98;;
24159;SDS011;62385;41.594;23.808;2023-09-08T13:51:02;2.05;;;0.95;;
24159;SDS011;62385;41.594;23.808;2023-09-08T13:53:29;2.50;;;1.17;;
24159;SDS011;62385;41.594;23.808;2023-09-08T13:55:59;2.17;;;1.25;;
24159;SDS011;62385;41.594;23.808;2023-09-08T13:58:25;1.77;;;1.27;;
24159;SDS011;62385;41.594;23.808;2023-09-08T14:00:50;2.00;;;1.30;;
24159;SDS011;62385;41.594;23.808;2023-09-08T14:03:19;2.05;;;1.48;;
24159;SDS011;62385;41.594;23.808;2023-09-08T14:05:44;2.13;;;1.20;;
24159;SDS011;62385;41.594;23.808;2023-09-08T14:08:10;2.03;;;1.08;;
24159;SDS011;62385;41.594;23.808;2023-09-08T14:10:36;1.30;;;0.95;;
24159;SDS011;62385;41.594;23.808;2023-09-08T14:13:01;2.35;;;1.42;;
24159;SDS011;62385;41.594;23.808;2023-09-08T14:15:28;1.83;;;1.30;;
24159;SDS011;62385;41.594;23.808;2023-09-08T14:17:54;1.45;;;1.10;;
24159;SDS011;62385;41.594;23.808;2023-09-08T14:20:19;3.15;;;1.35;;
24159;SDS011;62385;41.594;23.808;2023-09-08T14:22:45;3.05;;;1.10;;
24159;SDS011;62385;41.594;23.808;2023-09-08T14:25:10;1.95;;;1.23;;
24159;SDS011;62385;41.594;23.808;2023-09-08T14:27:36;1.40;;;0.85;;
24159;SDS011;62385;41.594;23.808;2023-09-08T14:30:05;2.53;;;1.40;;
24159;SDS011;62385;41.594;23.808;2023-09-08T14:32:31;1.20;;;0.98;;
24159;SDS011;62385;41.594;23.808;2023-09-08T14:34:56;1.63;;;0.93;;
24159;SDS011;62385;41.594;23.808;2023-09-08T14:37:22;2.00;;;1.23;;
24159;SDS011;62385;41.594;23.808;2023-09-08T14:39:48;2.10;;;1.23;;
24159;SDS011;62385;41.594;23.808;2023-09-08T14:42:14;1.10;;;0.90;;